sensor_id;sensor_type;location;lat;lon;timestamp;P1;durP1;ratioP1;P2;durP2;ratioP2
80567;SDS011;69922;45.656;25.586;2024-02-04T00:01:05;12.30;;;7.20;;
80567;SDS011;69922;45.656;25.586;2024-02-04T00:02:31;12.00;;;7.00;;
80567;SDS011;69922;45.656;25.586;2024-02-04T00:03:38;11.20;;;7.60;;
80567;SDS011;69922;45.656;25.586;2024-02-04T00:04:46;10.70;;;6.70;;
80567;SDS011;69922;45.656;25.586;2024-02-04T00:05:53;11.80;;;7.60;;
80567;SDS011;69922;45.656;25.586;2024-02-04T00:07:00;11.00;;;7.30;;
80567;SDS011;69922;45.656;25.586;2024-02-04T00:08:08;10.30;;;7.10;;
80567;SDS011;69922;45.656;25.586;2024-02-04T00:09:17;9.90;;;6.40;;
80567;SDS011;69922;45.656;25.586;2024-02-04T00:10:24;11.10;;;6.90;;
80567;SDS011;69922;45.656;25.586;2024-02-04T00:11:31;9.80;;;6.70;;
80567;SDS011;69922;45.656;25.586;2024-02-04T00:12:39;10.60;;;6.50;;
80567;SDS011;69922;45.656;25.586;2024-02-04T00:13:46;10.30;;;7.50;;
80567;SDS011;69922;45.656;25.586;2024-02-04T00:14:52;13.50;;;7.30;;
80567;SDS011;69922;45.656;25.586;2024-02-04T00:15:59;9.80;;;7.40;;
80567;SDS011;69922;45.656;25.586;2024-02-04T00:17:06;11.60;;;6.90;;
80567;SDS011;69922;45.656;25.586;2024-02-04T00:18:13;10.70;;;7.00;;
80567;SDS011;69922;45.656;25.586;2024-02-04T00:19:20;11.20;;;7.00;;
80567;SDS011;69922;45.656;25.586;2024-02-04T00:20:27;10.50;;;6.90;;
80567;SDS011;69922;45.656;25.586;2024-02-04T00:21:36;10.60;;;6.70;;
80567;SDS011;69922;45.656;25.586;2024-02-04T00:22:43;10.50;;;6.70;;
80567;SDS011;69922;45.656;25.586;2024-02-04T00:23:50;11.20;;;7.30;;
80567;SDS011;69922;45.656;25.586;2024-02-04T00:24:56;13.30;;;7.90;;
80567;SDS011;69922;45.656;25.586;2024-02-04T00:26:08;10.60;;;6.70;;
80567;SDS011;69922;45.656;25.586;2024-02-04T00:27:15;10.40;;;7.00;;
80567;SDS011;69922;45.656;25.586;2024-02-04T00:28:22;11.20;;;6.70;;
80567;SDS011;69922;45.656;25.586;2024-02-04T00:29:30;8.20;;;5.50;;
80567;SDS011;69922;45.656;25.586;2024-02-04T00:30:36;12.80;;;6.80;;
80567;SDS011;69922;45.656;25.586;2024-02-04T00:31:43;10.70;;;6.80;;
80567;SDS011;69922;45.656;25.586;2024-02-04T00:32:50;9.50;;;6.60;;
80567;SDS011;69922;45.656;25.586;2024-02-04T00:33:57;10.20;;;5.90;;
80567;SDS011;69922;45.656;25.586;2024-02-04T00:35:06;10.60;;;6.30;;
80567;SDS011;69922;45.656;25.586;2024-02-04T00:36:13;10.90;;;6.70;;
80567;SDS011;69922;45.656;25.586;2024-02-04T00:37:21;10.30;;;6.60;;
80567;SDS011;69922;45.656;25.586;2024-02-04T00:38:28;12.20;;;7.40;;
80567;SDS011;69922;45.656;25.586;2024-02-04T00:39:34;9.40;;;6.20;;
80567;SDS011;69922;45.656;25.586;2024-02-04T00:40:41;11.90;;;7.40;;
80567;SDS011;69922;45.656;25.586;2024-02-04T00:41:48;10.10;;;6.60;;
80567;SDS011;69922;45.656;25.586;2024-02-04T00:42:54;10.20;;;7.30;;
80567;SDS011;69922;45.656;25.586;2024-02-04T00:44:01;11.00;;;6.90;;
80567;SDS011;69922;45.656;25.586;2024-02-04T00:45:08;11.10;;;6.50;;
80567;SDS011;69922;45.656;25.586;2024-02-04T00:46:16;10.20;;;6.50;;
80567;SDS011;69922;45.656;25.586;2024-02-04T00:47:23;12.00;;;7.30;;
80567;SDS011;69922;45.656;25.586;2024-02-04T00:48:30;12.20;;;7.00;;
80567;SDS011;69922;45.656;25.586;2024-02-04T00:49:37;11.20;;;6.70;;
80567;SDS011;69922;45.656;25.586;2024-02-04T00:50:44;11.20;;;7.10;;
80567;SDS011;69922;45.656;25.586;2024-02-04T00:51:51;10.60;;;6.80;;
80567;SDS011;69922;45.656;25.586;2024-02-04T00:52:58;11.00;;;6.20;;
80567;SDS011;69922;45.656;25.586;2024-02-04T00:54:05;11.40;;;6.70;;
80567;SDS011;69922;45.656;25.586;2024-02-04T00:55:12;8.90;;;6.10;;
80567;SDS011;69922;45.656;25.586;2024-02-04T00:56:19;9.80;;;6.20;;
80567;SDS011;69922;45.656;25.586;2024-02-04T00:57:25;12.30;;;6.10;;
80567;SDS011;69922;45.656;25.586;2024-02-04T00:58:32;10.50;;;6.60;;
80567;SDS011;69922;45.656;25.586;2024-02-04T00:59:39;10.70;;;7.00;;
80567;SDS011;69922;45.656;25.586;2024-02-04T01:00:46;9.60;;;6.80;;
80567;SDS011;69922;45.656;25.586;2024-02-04T01:01:54;10.80;;;7.00;;
80567;SDS011;69922;45.656;25.586;2024-02-04T01:03:00;11.20;;;6.70;;
80567;SDS011;69922;45.656;25.586;2024-02-04T01:04:07;8.50;;;6.10;;
80567;SDS011;69922;45.656;25.586;2024-02-04T01:05:14;9.80;;;6.00;;
80567;SDS011;69922;45.656;25.586;2024-02-04T01:06:21;10.70;;;6.10;;
80567;SDS011;69922;45.656;25.586;2024-02-04T01:07:28;10.80;;;6.90;;
80567;SDS011;69922;45.656;25.586;2024-02-04T01:08:35;10.50;;;6.80;;
80567;SDS011;69922;45.656;25.586;2024-02-04T01:09:42;9.60;;;5.80;;
80567;SDS011;69922;45.656;25.586;2024-02-04T01:10:49;12.80;;;7.20;;
80567;SDS011;69922;45.656;25.586;2024-02-04T01:11:56;9.60;;;6.10;;
80567;SDS011;69922;45.656;25.586;2024-02-04T01:13:02;9.30;;;5.90;;
80567;SDS011;69922;45.656;25.586;2024-02-04T01:14:09;10.90;;;6.30;;
80567;SDS011;69922;45.656;25.586;2024-02-04T01:15:16;8.30;;;5.20;;
80567;SDS011;69922;45.656;25.586;2024-02-04T01:16:22;9.50;;;5.80;;
80567;SDS011;69922;45.656;25.586;2024-02-04T01:17:29;9.70;;;6.40;;
80567;SDS011;69922;45.656;25.586;2024-02-04T01:19:43;8.40;;;5.90;;
80567;SDS011;69922;45.656;25.586;2024-02-04T01:20:50;9.30;;;5.50;;
80567;SDS011;69922;45.656;25.586;2024-02-04T01:21:58;8.90;;;5.30;;
80567;SDS011;69922;45.656;25.586;2024-02-04T01:23:04;7.70;;;5.20;;
80567;SDS011;69922;45.656;25.586;2024-02-04T01:24:11;8.70;;;5.20;;
80567;SDS011;69922;45.656;25.586;2024-02-04T01:25:17;9.50;;;5.60;;
80567;SDS011;69922;45.656;25.586;2024-02-04T01:26:24;6.90;;;5.10;;
80567;SDS011;69922;45.656;25.586;2024-02-04T01:27:31;8.00;;;5.50;;
80567;SDS011;69922;45.656;25.586;2024-02-04T01:28:38;8.10;;;5.10;;
80567;SDS011;69922;45.656;25.586;2024-02-04T01:29:45;7.20;;;5.00;;
80567;SDS011;69922;45.656;25.586;2024-02-04T01:30:51;10.20;;;5.10;;
80567;SDS011;69922;45.656;25.586;2024-02-04T01:31:58;7.70;;;5.20;;
80567;SDS011;69922;45.656;25.586;2024-02-04T01:33:05;8.30;;;4.50;;
80567;SDS011;69922;45.656;25.586;2024-02-04T01:34:12;7.80;;;5.10;;
80567;SDS011;69922;45.656;25.586;2024-02-04T01:35:19;6.60;;;5.00;;
80567;SDS011;69922;45.656;25.586;2024-02-04T01:36:26;7.30;;;4.80;;
80567;SDS011;69922;45.656;25.586;2024-02-04T01:37:32;9.40;;;5.30;;
80567;SDS011;69922;45.656;25.586;2024-02-04T01:38:38;10.10;;;5.90;;
80567;SDS011;69922;45.656;25.586;2024-02-04T01:39:45;8.30;;;5.00;;
80567;SDS011;69922;45.656;25.586;2024-02-04T01:40:52;9.00;;;5.70;;
80567;SDS011;69922;45.656;25.586;2024-02-04T01:41:58;8.10;;;5.20;;
80567;SDS011;69922;45.656;25.586;2024-02-04T01:43:05;8.60;;;5.80;;
80567;SDS011;69922;45.656;25.586;2024-02-04T01:44:12;7.40;;;5.00;;
80567;SDS011;69922;45.656;25.586;2024-02-04T01:45:20;6.60;;;4.30;;
80567;SDS011;69922;45.656;25.586;2024-02-04T01:46:27;7.50;;;4.60;;
80567;SDS011;69922;45.656;25.586;2024-02-04T01:47:33;5.90;;;4.60;;
80567;SDS011;69922;45.656;25.586;2024-02-04T01:48:40;8.60;;;5.10;;
80567;SDS011;69922;45.656;25.586;2024-02-04T01:49:48;6.70;;;4.80;;
80567;SDS011;69922;45.656;25.586;2024-02-04T01:50:55;6.70;;;4.60;;
80567;SDS011;69922;45.656;25.586;2024-02-04T01:52:06;7.00;;;4.40;;
80567;SDS011;69922;45.656;25.586;2024-02-04T01:53:15;6.80;;;4.60;;
80567;SDS011;69922;45.656;25.586;2024-02-04T01:54:26;8.00;;;4.40;;
80567;SDS011;69922;45.656;25.586;2024-02-04T01:55:35;5.90;;;4.20;;
80567;SDS011;69922;45.656;25.586;2024-02-04T01:56:43;5.50;;;3.80;;
80567;SDS011;69922;45.656;25.586;2024-02-04T01:57:53;5.20;;;3.40;;
80567;SDS011;69922;45.656;25.586;2024-02-04T01:59:01;7.20;;;3.80;;
80567;SDS011;69922;45.656;25.586;2024-02-04T02:00:08;6.90;;;4.10;;
80567;SDS011;69922;45.656;25.586;2024-02-04T02:01:16;7.60;;;5.20;;
80567;SDS011;69922;45.656;25.586;2024-02-04T02:02:23;8.10;;;4.30;;
80567;SDS011;69922;45.656;25.586;2024-02-04T02:03:31;7.20;;;4.00;;
80567;SDS011;69922;45.656;25.586;2024-02-04T02:04:39;6.80;;;4.40;;
80567;SDS011;69922;45.656;25.586;2024-02-04T02:05:46;5.70;;;4.10;;
80567;SDS011;69922;45.656;25.586;2024-02-04T02:06:55;6.10;;;4.00;;
80567;SDS011;69922;45.656;25.586;2024-02-04T02:08:05;5.50;;;3.80;;
80567;SDS011;69922;45.656;25.586;2024-02-04T02:09:12;5.60;;;3.90;;
80567;SDS011;69922;45.656;25.586;2024-02-04T02:10:20;5.70;;;3.80;;
80567;SDS011;69922;45.656;25.586;2024-02-04T02:11:37;6.90;;;4.30;;
80567;SDS011;69922;45.656;25.586;2024-02-04T02:12:46;5.90;;;3.60;;
80567;SDS011;69922;45.656;25.586;2024-02-04T02:14:00;7.50;;;4.90;;
80567;SDS011;69922;45.656;25.586;2024-02-04T02:15:11;5.70;;;3.40;;
80567;SDS011;69922;45.656;25.586;2024-02-04T02:16:22;5.40;;;4.60;;
80567;SDS011;69922;45.656;25.586;2024-02-04T02:17:31;6.60;;;4.10;;
80567;SDS011;69922;45.656;25.586;2024-02-04T02:18:48;6.70;;;4.70;;
80567;SDS011;69922;45.656;25.586;2024-02-04T02:19:58;6.90;;;4.20;;
80567;SDS011;69922;45.656;25.586;2024-02-04T02:22:26;6.40;;;4.00;;
80567;SDS011;69922;45.656;25.586;2024-02-04T02:24:47;5.40;;;3.50;;
80567;SDS011;69922;45.656;25.586;2024-02-04T02:25:56;6.50;;;4.50;;
80567;SDS011;69922;45.656;25.586;2024-02-04T02:27:05;8.50;;;4.90;;
80567;SDS011;69922;45.656;25.586;2024-02-04T02:28:11;7.70;;;4.30;;
80567;SDS011;69922;45.656;25.586;2024-02-04T02:29:18;7.00;;;4.40;;
80567;SDS011;69922;45.656;25.586;2024-02-04T02:30:24;7.10;;;4.50;;
80567;SDS011;69922;45.656;25.586;2024-02-04T02:31:31;7.20;;;5.00;;
80567;SDS011;69922;45.656;25.586;2024-02-04T02:32:51;7.10;;;4.70;;
80567;SDS011;69922;45.656;25.586;2024-02-04T02:34:00;8.20;;;4.90;;
80567;SDS011;69922;45.656;25.586;2024-02-04T02:35:08;7.90;;;4.70;;
80567;SDS011;69922;45.656;25.586;2024-02-04T02:37:27;6.50;;;4.00;;
80567;SDS011;69922;45.656;25.586;2024-02-04T02:38:43;7.30;;;4.50;;
80567;SDS011;69922;45.656;25.586;2024-02-04T02:39:58;5.90;;;3.30;;
80567;SDS011;69922;45.656;25.586;2024-02-04T02:41:15;6.70;;;4.10;;
80567;SDS011;69922;45.656;25.586;2024-02-04T02:42:25;6.20;;;4.30;;
80567;SDS011;69922;45.656;25.586;2024-02-04T02:43:33;7.80;;;4.20;;
80567;SDS011;69922;45.656;25.586;2024-02-04T02:44:45;6.20;;;4.00;;
80567;SDS011;69922;45.656;25.586;2024-02-04T02:45:52;6.80;;;4.00;;
80567;SDS011;69922;45.656;25.586;2024-02-04T02:46:59;7.30;;;4.30;;
80567;SDS011;69922;45.656;25.586;2024-02-04T02:48:10;6.40;;;4.30;;
80567;SDS011;69922;45.656;25.586;2024-02-04T02:49:19;6.90;;;4.20;;
80567;SDS011;69922;45.656;25.586;2024-02-04T02:50:26;6.80;;;4.00;;
80567;SDS011;69922;45.656;25.586;2024-02-04T02:51:33;6.00;;;4.10;;
80567;SDS011;69922;45.656;25.586;2024-02-04T02:52:39;7.30;;;4.20;;
80567;SDS011;69922;45.656;25.586;2024-02-04T02:53:45;5.60;;;3.90;;
80567;SDS011;69922;45.656;25.586;2024-02-04T02:54:52;5.80;;;3.90;;
80567;SDS011;69922;45.656;25.586;2024-02-04T02:55:59;5.80;;;3.80;;
80567;SDS011;69922;45.656;25.586;2024-02-04T02:57:07;6.70;;;4.50;;
80567;SDS011;69922;45.656;25.586;2024-02-04T02:58:13;6.30;;;4.10;;
80567;SDS011;69922;45.656;25.586;2024-02-04T02:59:20;7.00;;;4.10;;
80567;SDS011;69922;45.656;25.586;2024-02-04T03:00:27;5.10;;;3.60;;
80567;SDS011;69922;45.656;25.586;2024-02-04T03:01:33;5.70;;;3.50;;
80567;SDS011;69922;45.656;25.586;2024-02-04T03:02:43;7.80;;;3.90;;
80567;SDS011;69922;45.656;25.586;2024-02-04T03:03:50;6.80;;;3.50;;
80567;SDS011;69922;45.656;25.586;2024-02-04T03:04:56;5.70;;;4.10;;
80567;SDS011;69922;45.656;25.586;2024-02-04T03:06:04;5.70;;;3.40;;
80567;SDS011;69922;45.656;25.586;2024-02-04T03:07:12;4.90;;;3.40;;
80567;SDS011;69922;45.656;25.586;2024-02-04T03:08:18;5.00;;;3.50;;
80567;SDS011;69922;45.656;25.586;2024-02-04T03:09:25;4.60;;;3.30;;
80567;SDS011;69922;45.656;25.586;2024-02-04T03:10:32;4.80;;;3.40;;
80567;SDS011;69922;45.656;25.586;2024-02-04T03:11:39;5.00;;;3.00;;
80567;SDS011;69922;45.656;25.586;2024-02-04T03:12:47;6.20;;;3.60;;
80567;SDS011;69922;45.656;25.586;2024-02-04T03:13:54;5.00;;;3.20;;
80567;SDS011;69922;45.656;25.586;2024-02-04T03:15:00;5.70;;;3.60;;
80567;SDS011;69922;45.656;25.586;2024-02-04T03:16:11;5.00;;;3.30;;
80567;SDS011;69922;45.656;25.586;2024-02-04T03:17:18;4.90;;;3.30;;
80567;SDS011;69922;45.656;25.586;2024-02-04T03:18:26;4.00;;;2.70;;
80567;SDS011;69922;45.656;25.586;2024-02-04T03:19:32;5.50;;;3.60;;
80567;SDS011;69922;45.656;25.586;2024-02-04T03:20:39;5.90;;;3.40;;
80567;SDS011;69922;45.656;25.586;2024-02-04T03:21:46;6.70;;;3.90;;
80567;SDS011;69922;45.656;25.586;2024-02-04T03:22:54;7.30;;;4.10;;
80567;SDS011;69922;45.656;25.586;2024-02-04T03:24:01;9.10;;;4.10;;
80567;SDS011;69922;45.656;25.586;2024-02-04T03:25:08;5.30;;;3.80;;
80567;SDS011;69922;45.656;25.586;2024-02-04T03:26:17;5.60;;;3.90;;
80567;SDS011;69922;45.656;25.586;2024-02-04T03:27:24;6.20;;;3.40;;
80567;SDS011;69922;45.656;25.586;2024-02-04T03:28:30;5.40;;;3.50;;
80567;SDS011;69922;45.656;25.586;2024-02-04T03:29:36;7.20;;;4.00;;
80567;SDS011;69922;45.656;25.586;2024-02-04T03:30:44;7.80;;;3.90;;
80567;SDS011;69922;45.656;25.586;2024-02-04T03:31:50;6.80;;;4.00;;
80567;SDS011;69922;45.656;25.586;2024-02-04T03:32:58;6.70;;;3.60;;
80567;SDS011;69922;45.656;25.586;2024-02-04T03:34:04;6.00;;;3.70;;
80567;SDS011;69922;45.656;25.586;2024-02-04T03:35:11;4.20;;;2.80;;
80567;SDS011;69922;45.656;25.586;2024-02-04T03:36:21;5.20;;;3.70;;
80567;SDS011;69922;45.656;25.586;2024-02-04T03:37:28;6.00;;;3.60;;
80567;SDS011;69922;45.656;25.586;2024-02-04T03:38:34;5.20;;;3.00;;
80567;SDS011;69922;45.656;25.586;2024-02-04T03:39:42;3.80;;;3.00;;
80567;SDS011;69922;45.656;25.586;2024-02-04T03:40:49;4.60;;;3.00;;
80567;SDS011;69922;45.656;25.586;2024-02-04T03:41:55;4.70;;;3.10;;
80567;SDS011;69922;45.656;25.586;2024-02-04T03:43:02;4.20;;;2.90;;
80567;SDS011;69922;45.656;25.586;2024-02-04T03:44:09;4.20;;;2.70;;
80567;SDS011;69922;45.656;25.586;2024-02-04T03:45:16;5.20;;;3.50;;
80567;SDS011;69922;45.656;25.586;2024-02-04T03:46:23;4.30;;;2.80;;
80567;SDS011;69922;45.656;25.586;2024-02-04T03:47:30;4.00;;;2.70;;
80567;SDS011;69922;45.656;25.586;2024-02-04T03:48:37;5.30;;;2.70;;
80567;SDS011;69922;45.656;25.586;2024-02-04T03:49:43;4.20;;;3.10;;
80567;SDS011;69922;45.656;25.586;2024-02-04T03:50:50;3.50;;;2.50;;
80567;SDS011;69922;45.656;25.586;2024-02-04T03:51:56;5.30;;;3.00;;
80567;SDS011;69922;45.656;25.586;2024-02-04T03:53:03;4.50;;;2.80;;
80567;SDS011;69922;45.656;25.586;2024-02-04T03:54:09;3.70;;;2.80;;
80567;SDS011;69922;45.656;25.586;2024-02-04T03:55:16;3.80;;;2.50;;
80567;SDS011;69922;45.656;25.586;2024-02-04T03:56:23;4.40;;;2.90;;
80567;SDS011;69922;45.656;25.586;2024-02-04T03:57:29;4.30;;;2.80;;
80567;SDS011;69922;45.656;25.586;2024-02-04T03:58:37;4.60;;;3.10;;
80567;SDS011;69922;45.656;25.586;2024-02-04T03:59:46;4.10;;;2.20;;
80567;SDS011;69922;45.656;25.586;2024-02-04T04:00:52;4.10;;;2.30;;
80567;SDS011;69922;45.656;25.586;2024-02-04T04:01:59;3.80;;;2.60;;
80567;SDS011;69922;45.656;25.586;2024-02-04T04:03:06;3.70;;;2.70;;
80567;SDS011;69922;45.656;25.586;2024-02-04T04:04:13;3.60;;;2.60;;
80567;SDS011;69922;45.656;25.586;2024-02-04T04:05:19;4.20;;;2.40;;
80567;SDS011;69922;45.656;25.586;2024-02-04T04:06:27;3.20;;;2.50;;
80567;SDS011;69922;45.656;25.586;2024-02-04T04:07:34;3.30;;;2.80;;
80567;SDS011;69922;45.656;25.586;2024-02-04T04:08:41;3.50;;;2.40;;
80567;SDS011;69922;45.656;25.586;2024-02-04T04:09:48;3.70;;;2.30;;
80567;SDS011;69922;45.656;25.586;2024-02-04T04:10:54;2.90;;;2.50;;
80567;SDS011;69922;45.656;25.586;2024-02-04T04:12:01;3.10;;;2.40;;
80567;SDS011;69922;45.656;25.586;2024-02-04T04:13:08;4.70;;;2.60;;
80567;SDS011;69922;45.656;25.586;2024-02-04T04:14:15;2.60;;;2.00;;
80567;SDS011;69922;45.656;25.586;2024-02-04T04:15:21;3.40;;;2.30;;
80567;SDS011;69922;45.656;25.586;2024-02-04T04:16:28;3.80;;;2.90;;
80567;SDS011;69922;45.656;25.586;2024-02-04T04:17:34;4.00;;;2.50;;
80567;SDS011;69922;45.656;25.586;2024-02-04T04:18:41;2.90;;;2.40;;
80567;SDS011;69922;45.656;25.586;2024-02-04T04:19:48;3.40;;;2.10;;
80567;SDS011;69922;45.656;25.586;2024-02-04T04:20:55;2.80;;;2.00;;
80567;SDS011;69922;45.656;25.586;2024-02-04T04:22:03;3.40;;;2.30;;
80567;SDS011;69922;45.656;25.586;2024-02-04T04:23:09;3.50;;;2.00;;
80567;SDS011;69922;45.656;25.586;2024-02-04T04:24:16;3.30;;;2.50;;
80567;SDS011;69922;45.656;25.586;2024-02-04T04:25:26;3.50;;;2.10;;
80567;SDS011;69922;45.656;25.586;2024-02-04T04:26:33;2.40;;;1.90;;
80567;SDS011;69922;45.656;25.586;2024-02-04T04:27:39;2.70;;;2.20;;
80567;SDS011;69922;45.656;25.586;2024-02-04T04:28:46;1.80;;;1.70;;
80567;SDS011;69922;45.656;25.586;2024-02-04T04:29:53;3.20;;;2.20;;
80567;SDS011;69922;45.656;25.586;2024-02-04T04:31:00;2.80;;;1.90;;
80567;SDS011;69922;45.656;25.586;2024-02-04T04:32:07;2.40;;;2.10;;
80567;SDS011;69922;45.656;25.586;2024-02-04T04:33:14;2.80;;;2.20;;
80567;SDS011;69922;45.656;25.586;2024-02-04T04:34:21;3.00;;;2.10;;
80567;SDS011;69922;45.656;25.586;2024-02-04T04:35:27;3.70;;;3.00;;
80567;SDS011;69922;45.656;25.586;2024-02-04T04:36:33;3.30;;;2.60;;
80567;SDS011;69922;45.656;25.586;2024-02-04T04:37:40;2.40;;;1.90;;
80567;SDS011;69922;45.656;25.586;2024-02-04T04:38:46;3.20;;;1.90;;
80567;SDS011;69922;45.656;25.586;2024-02-04T04:39:55;2.90;;;2.30;;
80567;SDS011;69922;45.656;25.586;2024-02-04T04:41:02;2.60;;;2.00;;
80567;SDS011;69922;45.656;25.586;2024-02-04T04:42:08;2.40;;;1.90;;
80567;SDS011;69922;45.656;25.586;2024-02-04T04:43:15;2.50;;;2.10;;
80567;SDS011;69922;45.656;25.586;2024-02-04T04:44:21;3.00;;;2.00;;
80567;SDS011;69922;45.656;25.586;2024-02-04T04:45:28;2.40;;;2.00;;
80567;SDS011;69922;45.656;25.586;2024-02-04T04:46:37;3.00;;;2.10;;
80567;SDS011;69922;45.656;25.586;2024-02-04T04:47:44;2.90;;;2.40;;
80567;SDS011;69922;45.656;25.586;2024-02-04T04:48:51;3.00;;;2.20;;
80567;SDS011;69922;45.656;25.586;2024-02-04T04:50:02;2.40;;;2.00;;
80567;SDS011;69922;45.656;25.586;2024-02-04T04:51:10;3.20;;;2.30;;
80567;SDS011;69922;45.656;25.586;2024-02-04T04:52:18;3.10;;;2.20;;
80567;SDS011;69922;45.656;25.586;2024-02-04T04:53:24;4.00;;;2.50;;
80567;SDS011;69922;45.656;25.586;2024-02-04T04:54:30;3.60;;;2.80;;
80567;SDS011;69922;45.656;25.586;2024-02-04T04:55:37;2.70;;;2.30;;
80567;SDS011;69922;45.656;25.586;2024-02-04T04:56:43;3.30;;;2.50;;
80567;SDS011;69922;45.656;25.586;2024-02-04T04:57:50;4.20;;;2.80;;
80567;SDS011;69922;45.656;25.586;2024-02-04T04:58:56;4.50;;;3.50;;
80567;SDS011;69922;45.656;25.586;2024-02-04T05:00:03;6.50;;;3.60;;
80567;SDS011;69922;45.656;25.586;2024-02-04T05:01:14;4.90;;;3.50;;
80567;SDS011;69922;45.656;25.586;2024-02-04T05:02:21;6.00;;;4.50;;
80567;SDS011;69922;45.656;25.586;2024-02-04T05:03:28;9.30;;;5.60;;
80567;SDS011;69922;45.656;25.586;2024-02-04T05:04:34;6.10;;;4.20;;
80567;SDS011;69922;45.656;25.586;2024-02-04T05:05:41;6.20;;;3.90;;
80567;SDS011;69922;45.656;25.586;2024-02-04T05:06:47;5.40;;;3.90;;
80567;SDS011;69922;45.656;25.586;2024-02-04T05:07:54;4.60;;;3.50;;
80567;SDS011;69922;45.656;25.586;2024-02-04T05:09:01;6.80;;;3.90;;
80567;SDS011;69922;45.656;25.586;2024-02-04T05:10:08;6.60;;;4.10;;
80567;SDS011;69922;45.656;25.586;2024-02-04T05:11:15;5.90;;;4.10;;
80567;SDS011;69922;45.656;25.586;2024-02-04T05:12:21;5.00;;;4.30;;
80567;SDS011;69922;45.656;25.586;2024-02-04T05:13:28;5.90;;;4.00;;
80567;SDS011;69922;45.656;25.586;2024-02-04T05:14:34;5.90;;;3.90;;
80567;SDS011;69922;45.656;25.586;2024-02-04T05:15:41;6.30;;;4.30;;
80567;SDS011;69922;45.656;25.586;2024-02-04T05:16:47;4.90;;;4.20;;
80567;SDS011;69922;45.656;25.586;2024-02-04T05:17:54;5.80;;;4.00;;
80567;SDS011;69922;45.656;25.586;2024-02-04T05:19:00;5.90;;;4.10;;
80567;SDS011;69922;45.656;25.586;2024-02-04T05:20:08;3.40;;;3.00;;
80567;SDS011;69922;45.656;25.586;2024-02-04T05:21:15;4.30;;;3.00;;
80567;SDS011;69922;45.656;25.586;2024-02-04T05:22:22;3.50;;;2.50;;
80567;SDS011;69922;45.656;25.586;2024-02-04T05:23:29;2.70;;;2.30;;
80567;SDS011;69922;45.656;25.586;2024-02-04T05:24:35;2.70;;;2.20;;
80567;SDS011;69922;45.656;25.586;2024-02-04T05:25:42;2.70;;;2.30;;
80567;SDS011;69922;45.656;25.586;2024-02-04T05:26:48;3.20;;;2.10;;
80567;SDS011;69922;45.656;25.586;2024-02-04T05:27:55;3.30;;;2.20;;
80567;SDS011;69922;45.656;25.586;2024-02-04T05:29:02;2.70;;;2.30;;
80567;SDS011;69922;45.656;25.586;2024-02-04T05:30:09;4.70;;;2.90;;
80567;SDS011;69922;45.656;25.586;2024-02-04T05:32:22;3.50;;;2.50;;
80567;SDS011;69922;45.656;25.586;2024-02-04T05:33:28;3.40;;;2.60;;
80567;SDS011;69922;45.656;25.586;2024-02-04T05:34:36;3.60;;;2.70;;
80567;SDS011;69922;45.656;25.586;2024-02-04T05:35:43;3.10;;;2.80;;
80567;SDS011;69922;45.656;25.586;2024-02-04T05:36:49;3.30;;;2.50;;
80567;SDS011;69922;45.656;25.586;2024-02-04T05:37:56;2.70;;;2.50;;
80567;SDS011;69922;45.656;25.586;2024-02-04T05:39:09;4.20;;;3.10;;
80567;SDS011;69922;45.656;25.586;2024-02-04T05:40:16;4.80;;;3.10;;
80567;SDS011;69922;45.656;25.586;2024-02-04T05:41:25;3.00;;;2.70;;
80567;SDS011;69922;45.656;25.586;2024-02-04T05:42:31;2.70;;;2.00;;
80567;SDS011;69922;45.656;25.586;2024-02-04T05:43:39;4.10;;;2.70;;
80567;SDS011;69922;45.656;25.586;2024-02-04T05:44:46;2.80;;;2.40;;
80567;SDS011;69922;45.656;25.586;2024-02-04T05:45:53;3.20;;;2.50;;
80567;SDS011;69922;45.656;25.586;2024-02-04T05:47:00;3.00;;;2.40;;
80567;SDS011;69922;45.656;25.586;2024-02-04T05:48:07;3.10;;;2.30;;
80567;SDS011;69922;45.656;25.586;2024-02-04T05:49:14;5.20;;;2.70;;
80567;SDS011;69922;45.656;25.586;2024-02-04T05:50:21;3.30;;;2.90;;
80567;SDS011;69922;45.656;25.586;2024-02-04T05:51:28;3.50;;;2.70;;
80567;SDS011;69922;45.656;25.586;2024-02-04T05:52:35;4.60;;;3.30;;
80567;SDS011;69922;45.656;25.586;2024-02-04T05:53:41;4.50;;;3.20;;
80567;SDS011;69922;45.656;25.586;2024-02-04T05:54:48;3.40;;;2.90;;
80567;SDS011;69922;45.656;25.586;2024-02-04T05:55:55;4.20;;;2.90;;
80567;SDS011;69922;45.656;25.586;2024-02-04T05:57:01;4.90;;;3.50;;
80567;SDS011;69922;45.656;25.586;2024-02-04T05:58:09;5.00;;;3.30;;
80567;SDS011;69922;45.656;25.586;2024-02-04T05:59:17;5.30;;;3.40;;
80567;SDS011;69922;45.656;25.586;2024-02-04T06:00:24;4.50;;;3.00;;
80567;SDS011;69922;45.656;25.586;2024-02-04T06:01:31;3.30;;;2.70;;
80567;SDS011;69922;45.656;25.586;2024-02-04T06:02:38;6.70;;;4.80;;
80567;SDS011;69922;45.656;25.586;2024-02-04T06:03:47;7.00;;;5.30;;
80567;SDS011;69922;45.656;25.586;2024-02-04T06:04:55;4.20;;;3.40;;
80567;SDS011;69922;45.656;25.586;2024-02-04T06:06:02;4.80;;;3.30;;
80567;SDS011;69922;45.656;25.586;2024-02-04T06:07:09;3.40;;;3.00;;
80567;SDS011;69922;45.656;25.586;2024-02-04T06:08:16;3.80;;;2.90;;
80567;SDS011;69922;45.656;25.586;2024-02-04T06:09:23;4.00;;;3.10;;
80567;SDS011;69922;45.656;25.586;2024-02-04T06:10:30;5.40;;;3.30;;
80567;SDS011;69922;45.656;25.586;2024-02-04T06:11:37;6.00;;;3.40;;
80567;SDS011;69922;45.656;25.586;2024-02-04T06:12:44;3.90;;;3.10;;
80567;SDS011;69922;45.656;25.586;2024-02-04T06:13:51;4.10;;;3.70;;
80567;SDS011;69922;45.656;25.586;2024-02-04T06:14:58;4.60;;;3.40;;
80567;SDS011;69922;45.656;25.586;2024-02-04T06:16:06;3.00;;;2.60;;
80567;SDS011;69922;45.656;25.586;2024-02-04T06:18:19;2.90;;;2.50;;
80567;SDS011;69922;45.656;25.586;2024-02-04T06:19:26;2.10;;;1.80;;
80567;SDS011;69922;45.656;25.586;2024-02-04T06:20:33;2.60;;;2.40;;
80567;SDS011;69922;45.656;25.586;2024-02-04T06:21:39;4.00;;;2.70;;
80567;SDS011;69922;45.656;25.586;2024-02-04T06:22:46;3.80;;;2.50;;
80567;SDS011;69922;45.656;25.586;2024-02-04T06:23:53;3.50;;;2.90;;
80567;SDS011;69922;45.656;25.586;2024-02-04T06:24:59;4.40;;;3.00;;
80567;SDS011;69922;45.656;25.586;2024-02-04T06:26:06;4.00;;;3.10;;
80567;SDS011;69922;45.656;25.586;2024-02-04T06:27:13;4.50;;;3.20;;
80567;SDS011;69922;45.656;25.586;2024-02-04T06:28:19;3.50;;;2.70;;
80567;SDS011;69922;45.656;25.586;2024-02-04T06:29:26;3.30;;;2.80;;
80567;SDS011;69922;45.656;25.586;2024-02-04T06:30:32;4.40;;;3.40;;
80567;SDS011;69922;45.656;25.586;2024-02-04T06:31:39;5.40;;;3.60;;
80567;SDS011;69922;45.656;25.586;2024-02-04T06:32:50;6.90;;;4.20;;
80567;SDS011;69922;45.656;25.586;2024-02-04T06:33:56;6.60;;;4.10;;
80567;SDS011;69922;45.656;25.586;2024-02-04T06:35:06;7.70;;;4.10;;
80567;SDS011;69922;45.656;25.586;2024-02-04T06:36:12;7.50;;;4.70;;
80567;SDS011;69922;45.656;25.586;2024-02-04T06:37:19;6.80;;;4.60;;
80567;SDS011;69922;45.656;25.586;2024-02-04T06:38:26;7.60;;;4.30;;
80567;SDS011;69922;45.656;25.586;2024-02-04T06:39:33;7.10;;;4.70;;
80567;SDS011;69922;45.656;25.586;2024-02-04T06:40:40;6.20;;;3.80;;
80567;SDS011;69922;45.656;25.586;2024-02-04T06:41:46;8.90;;;4.90;;
80567;SDS011;69922;45.656;25.586;2024-02-04T06:42:53;6.20;;;4.20;;
80567;SDS011;69922;45.656;25.586;2024-02-04T06:44:00;8.00;;;4.40;;
80567;SDS011;69922;45.656;25.586;2024-02-04T06:45:08;7.10;;;4.60;;
80567;SDS011;69922;45.656;25.586;2024-02-04T06:46:15;7.90;;;4.90;;
80567;SDS011;69922;45.656;25.586;2024-02-04T06:47:30;9.40;;;4.50;;